createdAt,value
2018-05-27T00:00:40.082Z,1013.87
2018-05-27T00:01:40.079Z,1013.88
2018-05-27T00:02:40.083Z,1013.91
2018-05-27T00:03:40.075Z,1013.92
2018-05-27T00:04:40.072Z,1013.92
2018-05-27T00:05:40.069Z,1013.94
2018-05-27T00:06:40.091Z,1013.92
2018-05-27T00:07:40.059Z,1013.92
2018-05-27T00:08:40.053Z,1013.93
2018-05-27T00:09:40.086Z,1013.88
2018-05-27T00:10:40.050Z,1013.85
2018-05-27T00:11:40.046Z,1013.83
2018-05-27T00:12:40.044Z,1013.81
2018-05-27T00:13:40.036Z,1013.76
2018-05-27T00:14:40.031Z,1013.77
2018-05-27T00:15:40.030Z,1013.75
2018-05-27T00:16:40.024Z,1013.74
2018-05-27T00:17:40.025Z,1013.72
2018-05-27T00:18:40.023Z,1013.68
2018-05-27T00:19:40.019Z,1013.70
2018-05-27T00:20:40.011Z,1013.65
2018-05-27T00:21:40.012Z,1013.65
2018-05-27T00:22:40.013Z,1013.64
2018-05-27T00:23:39.999Z,1013.59
2018-05-27T00:24:39.999Z,1013.63
2018-05-27T00:25:39.996Z,1013.61
2018-05-27T00:26:39.995Z,1013.62
2018-05-27T00:27:39.985Z,1013.62
2018-05-27T00:28:39.981Z,1013.68
2018-05-27T00:29:39.986Z,1013.62
2018-05-27T00:30:39.975Z,1013.60
2018-05-27T00:31:39.974Z,1013.67
2018-05-27T00:32:39.975Z,1013.67
2018-05-27T00:33:39.968Z,1013.63
2018-05-27T00:34:39.961Z,1013.68
2018-05-27T00:35:39.957Z,1013.62
2018-05-27T00:36:39.953Z,1013.69
2018-05-27T00:37:39.951Z,1013.70
2018-05-27T00:38:39.948Z,1013.71
2018-05-27T00:39:39.945Z,1013.70
2018-05-27T00:40:39.944Z,1013.71
2018-05-27T00:41:39.943Z,1013.71
2018-05-27T00:42:39.933Z,1013.71
2018-05-27T00:43:39.928Z,1013.70
2018-05-27T00:44:39.925Z,1013.70
2018-05-27T00:45:39.922Z,1013.71
2018-05-27T00:46:39.921Z,1013.70
2018-05-27T00:47:39.908Z,1013.66
2018-05-27T00:48:39.908Z,1013.67
2018-05-27T00:49:39.906Z,1013.69
2018-05-27T00:50:39.901Z,1013.64
2018-05-27T00:51:39.898Z,1013.64
2018-05-27T00:52:39.894Z,1013.62
2018-05-27T00:53:39.889Z,1013.58
2018-05-27T00:54:39.882Z,1013.65
2018-05-27T00:55:39.880Z,1013.64
2018-05-27T00:56:39.878Z,1013.59
2018-05-27T00:57:39.876Z,1013.60
2018-05-27T00:58:39.872Z,1013.60
2018-05-27T00:59:39.871Z,1013.56
2018-05-27T01:00:39.869Z,1013.58
2018-05-27T01:01:39.864Z,1013.53
2018-05-27T01:02:39.853Z,1013.56
2018-05-27T01:03:39.849Z,1013.50
2018-05-27T01:04:39.845Z,1013.52
2018-05-27T01:05:39.854Z,1013.55
2018-05-27T01:06:39.846Z,1013.54
2018-05-27T01:07:39.841Z,1013.57
2018-05-27T01:08:39.835Z,1013.59
2018-05-27T01:09:39.832Z,1013.57
2018-05-27T01:10:39.837Z,1013.55
2018-05-27T01:11:39.822Z,1013.52
2018-05-27T01:12:39.823Z,1013.52
2018-05-27T01:13:39.809Z,1013.53
2018-05-27T01:14:39.810Z,1013.54
2018-05-27T01:15:39.809Z,1013.49
2018-05-27T01:16:39.825Z,1013.50
2018-05-27T01:17:39.795Z,1013.52
2018-05-27T01:18:39.897Z,1013.55
2018-05-27T01:19:39.797Z,1013.49
2018-05-27T01:20:39.787Z,1013.49
2018-05-27T01:21:39.783Z,1013.46
2018-05-27T01:22:39.778Z,1013.45
2018-05-27T01:23:39.776Z,1013.43
2018-05-27T01:24:39.767Z,1013.40
2018-05-27T01:25:39.766Z,1013.39
2018-05-27T01:26:39.765Z,1013.41
2018-05-27T01:27:39.760Z,1013.46
2018-05-27T01:28:39.755Z,1013.42
2018-05-27T01:29:39.754Z,1013.44
2018-05-27T01:30:39.745Z,1013.44
2018-05-27T01:31:39.744Z,1013.38
2018-05-27T01:32:39.736Z,1013.42
2018-05-27T01:33:39.740Z,1013.40
2018-05-27T01:34:39.733Z,1013.45
2018-05-27T01:35:39.747Z,1013.43
2018-05-27T01:36:39.724Z,1013.42
2018-05-27T01:37:39.717Z,1013.40
2018-05-27T01:38:39.713Z,1013.42
2018-05-27T01:39:39.709Z,1013.37
2018-05-27T01:40:39.711Z,1013.35
2018-05-27T01:41:39.698Z,1013.36
2018-05-27T01:42:39.699Z,1013.40
2018-05-27T01:43:39.697Z,1013.37
2018-05-27T01:44:39.718Z,1013.40
2018-05-27T01:45:39.688Z,1013.40
2018-05-27T01:46:39.683Z,1013.39
2018-05-27T01:47:39.686Z,1013.38
2018-05-27T01:48:39.675Z,1013.36
2018-05-27T01:49:39.671Z,1013.34
2018-05-27T01:50:39.670Z,1013.30
2018-05-27T01:51:39.660Z,1013.30
2018-05-27T01:52:39.655Z,1013.26
2018-05-27T01:53:39.650Z,1013.25
2018-05-27T01:54:39.651Z,1013.25
2018-05-27T01:55:39.645Z,1013.24
2018-05-27T01:56:39.646Z,1013.25
2018-05-27T01:57:39.641Z,1013.27
2018-05-27T01:58:39.631Z,1013.25
2018-05-27T01:59:39.631Z,1013.27
2018-05-27T02:00:39.622Z,1013.25
2018-05-27T02:01:39.624Z,1013.22
2018-05-27T02:02:39.618Z,1013.24
2018-05-27T02:03:39.612Z,1013.19
2018-05-27T02:04:39.610Z,1013.24
2018-05-27T02:05:39.605Z,1013.26
2018-05-27T02:06:39.601Z,1013.26
2018-05-27T02:07:39.592Z,1013.26
2018-05-27T02:08:39.593Z,1013.26
2018-05-27T02:09:39.585Z,1013.27
2018-05-27T02:10:39.581Z,1013.21
2018-05-27T02:11:39.579Z,1013.23
2018-05-27T02:12:39.588Z,1013.21
2018-05-27T02:13:39.573Z,1013.19
2018-05-27T02:14:39.566Z,1013.19
2018-05-27T02:15:39.575Z,1013.19
2018-05-27T02:16:39.570Z,1013.16
2018-05-27T02:17:39.557Z,1013.14
2018-05-27T02:18:39.553Z,1013.15
2018-05-27T02:19:39.547Z,1013.17
2018-05-27T02:20:39.543Z,1013.21
2018-05-27T02:21:39.538Z,1013.19
2018-05-27T02:22:39.532Z,1013.24
2018-05-27T02:23:39.529Z,1013.24
2018-05-27T02:24:39.527Z,1013.23
2018-05-27T02:25:39.520Z,1013.24
2018-05-27T02:26:39.518Z,1013.23
2018-05-27T02:27:39.508Z,1013.20
2018-05-27T02:28:39.504Z,1013.23
2018-05-27T02:29:39.505Z,1013.21
2018-05-27T02:30:39.499Z,1013.24
2018-05-27T02:31:39.503Z,1013.22
2018-05-27T02:32:39.488Z,1013.22
2018-05-27T02:33:39.488Z,1013.22
2018-05-27T02:34:39.484Z,1013.22
2018-05-27T02:35:39.478Z,1013.20
2018-05-27T02:36:39.482Z,1013.20
2018-05-27T02:37:39.470Z,1013.18
2018-05-27T02:38:39.466Z,1013.17
2018-05-27T02:39:39.480Z,1013.17
2018-05-27T02:40:39.465Z,1013.18
2018-05-27T02:41:39.464Z,1013.17
2018-05-27T02:42:39.454Z,1013.17
2018-05-27T02:43:39.445Z,1013.13
2018-05-27T02:44:39.440Z,1013.15
2018-05-27T02:45:39.439Z,1013.14
2018-05-27T02:46:39.427Z,1013.14
2018-05-27T02:47:39.425Z,1013.13
2018-05-27T02:48:39.418Z,1013.19
2018-05-27T02:49:39.459Z,1013.17
2018-05-27T02:50:39.414Z,1013.11
2018-05-27T02:51:39.409Z,1013.14
2018-05-27T02:52:39.407Z,1013.14
2018-05-27T02:53:39.401Z,1013.14
2018-05-27T02:54:39.401Z,1013.19
2018-05-27T02:55:39.389Z,1013.18
2018-05-27T02:56:39.393Z,1013.24
2018-05-27T02:57:39.388Z,1013.22
2018-05-27T02:58:39.382Z,1013.23
2018-05-27T02:59:39.416Z,1013.27
2018-05-27T03:00:39.373Z,1013.23
2018-05-27T03:01:39.366Z,1013.27
2018-05-27T03:02:39.360Z,1013.31
2018-05-27T03:03:39.360Z,1013.29
2018-05-27T03:04:39.354Z,1013.30
2018-05-27T03:05:39.352Z,1013.31
2018-05-27T03:06:39.344Z,1013.24
2018-05-27T03:07:39.339Z,1013.27
2018-05-27T03:08:39.380Z,1013.24
2018-05-27T03:09:39.330Z,1013.21
2018-05-27T03:10:39.333Z,1013.20
2018-05-27T03:11:39.326Z,1013.22
2018-05-27T03:12:39.321Z,1013.21
2018-05-27T03:13:39.313Z,1013.19
2018-05-27T03:14:39.309Z,1013.21
2018-05-27T03:15:39.317Z,1013.20
2018-05-27T03:16:39.307Z,1013.24
2018-05-27T03:17:39.295Z,1013.24
2018-05-27T03:18:39.318Z,1013.26
2018-05-27T03:19:39.291Z,1013.26
2018-05-27T03:20:39.285Z,1013.26
2018-05-27T03:21:39.285Z,1013.26
2018-05-27T03:22:39.273Z,1013.25
2018-05-27T03:23:39.269Z,1013.28
2018-05-27T03:24:39.275Z,1013.28
2018-05-27T03:25:39.277Z,1013.21
2018-05-27T03:26:39.259Z,1013.23
2018-05-27T03:27:39.255Z,1013.23
2018-05-27T03:28:39.252Z,1013.19
2018-05-27T03:29:39.245Z,1013.20
2018-05-27T03:30:39.244Z,1013.19
2018-05-27T03:31:39.234Z,1013.21
2018-05-27T03:32:39.230Z,1013.17
2018-05-27T03:33:39.230Z,1013.16
2018-05-27T03:34:39.222Z,1013.15
2018-05-27T03:35:39.220Z,1013.13
2018-05-27T03:36:39.215Z,1013.17
2018-05-27T03:37:39.213Z,1013.20
2018-05-27T03:38:39.203Z,1013.20
2018-05-27T03:39:39.202Z,1013.18
2018-05-27T03:40:39.199Z,1013.21
2018-05-27T03:41:39.191Z,1013.17
2018-05-27T03:42:39.189Z,1013.19
2018-05-27T03:43:39.190Z,1013.16
2018-05-27T03:44:39.187Z,1013.19
2018-05-27T03:45:39.174Z,1013.18
2018-05-27T03:46:39.173Z,1013.19
2018-05-27T03:47:39.168Z,1013.16
2018-05-27T03:48:39.164Z,1013.20
2018-05-27T03:49:39.170Z,1013.18
2018-05-27T03:50:39.146Z,1013.18
2018-05-27T03:51:39.144Z,1013.16
2018-05-27T03:52:40.297Z,1013.19
2018-05-27T03:53:39.149Z,1013.19
2018-05-27T03:54:39.135Z,1013.19
2018-05-27T03:55:39.129Z,1013.22
2018-05-27T03:56:39.129Z,1013.20
2018-05-27T03:57:39.119Z,1013.17
2018-05-27T03:58:39.115Z,1013.22
2018-05-27T03:59:39.108Z,1013.21
2018-05-27T04:00:39.105Z,1013.20
2018-05-27T04:01:39.103Z,1013.18
2018-05-27T04:02:39.095Z,1013.22
2018-05-27T04:03:39.093Z,1013.21
2018-05-27T04:04:39.087Z,1013.14
2018-05-27T04:05:39.080Z,1013.19
2018-05-27T04:06:39.087Z,1013.13
2018-05-27T04:07:39.079Z,1013.14
2018-05-27T04:08:39.068Z,1013.13
2018-05-27T04:09:39.066Z,1013.13
2018-05-27T04:10:39.058Z,1013.12
2018-05-27T04:11:39.055Z,1013.13
2018-05-27T04:12:39.051Z,1013.14
2018-05-27T04:13:39.045Z,1013.13
2018-05-27T04:14:39.044Z,1013.13
2018-05-27T04:15:39.039Z,1013.11
2018-05-27T04:16:39.034Z,1013.10
2018-05-27T04:17:39.028Z,1013.09
2018-05-27T04:18:39.024Z,1013.07
2018-05-27T04:19:39.041Z,1013.07
2018-05-27T04:20:39.016Z,1013.08
2018-05-27T04:21:39.009Z,1013.04
2018-05-27T04:22:39.011Z,1013.05
2018-05-27T04:23:39.001Z,1013.07
2018-05-27T04:24:38.999Z,1013.06
2018-05-27T04:25:38.993Z,1013.05
2018-05-27T04:26:38.987Z,1013.07
2018-05-27T04:27:38.988Z,1013.08
2018-05-27T04:28:39.019Z,1013.08
2018-05-27T04:29:38.972Z,1013.08
2018-05-27T04:30:38.970Z,1013.07
2018-05-27T04:31:38.972Z,1013.09
2018-05-27T04:32:38.958Z,1013.05
2018-05-27T04:33:38.958Z,1013.07
2018-05-27T04:34:38.952Z,1013.04
2018-05-27T04:35:38.948Z,1013.06
2018-05-27T04:36:38.942Z,1013.06
2018-05-27T04:37:38.938Z,1013.01
2018-05-27T04:38:38.936Z,1013.00
2018-05-27T04:39:38.927Z,1012.98
2018-05-27T04:40:38.925Z,1012.96
2018-05-27T04:41:38.918Z,1012.97
2018-05-27T04:42:38.916Z,1012.98
2018-05-27T04:43:38.915Z,1012.96
2018-05-27T04:44:38.904Z,1012.96
2018-05-27T04:45:38.900Z,1012.97
2018-05-27T04:46:38.895Z,1012.98
2018-05-27T04:47:38.888Z,1012.98
2018-05-27T04:48:38.884Z,1012.95
2018-05-27T04:49:38.882Z,1012.96
2018-05-27T04:50:38.878Z,1012.98
2018-05-27T04:51:38.879Z,1012.99
2018-05-27T04:52:38.866Z,1012.96
2018-05-27T04:53:38.860Z,1012.98
2018-05-27T04:54:38.858Z,1012.92
2018-05-27T04:55:38.854Z,1012.92
2018-05-27T04:56:38.846Z,1012.93
2018-05-27T04:57:38.845Z,1012.91
2018-05-27T04:58:38.841Z,1012.93
2018-05-27T04:59:38.838Z,1012.94
2018-05-27T05:00:38.833Z,1012.94
2018-05-27T05:01:38.828Z,1012.92
2018-05-27T05:02:38.822Z,1012.93
2018-05-27T05:03:38.819Z,1012.92
2018-05-27T05:04:38.816Z,1012.97
2018-05-27T05:05:38.810Z,1012.97
2018-05-27T05:06:38.803Z,1013.01
2018-05-27T05:07:38.797Z,1013.02
2018-05-27T05:08:38.799Z,1012.99
2018-05-27T05:09:38.797Z,1013.01
2018-05-27T05:10:38.785Z,1013.00
2018-05-27T05:11:38.788Z,1013.03
2018-05-27T05:12:38.781Z,1012.98
2018-05-27T05:13:38.777Z,1012.94
2018-05-27T05:14:38.769Z,1012.98
2018-05-27T05:15:38.764Z,1012.93
2018-05-27T05:16:38.765Z,1012.98
2018-05-27T05:17:38.756Z,1012.99
2018-05-27T05:18:38.755Z,1013.03
2018-05-27T05:19:38.755Z,1013.00
2018-05-27T05:20:38.758Z,1013.04
2018-05-27T05:21:38.746Z,1013.08
2018-05-27T05:22:38.739Z,1013.01
2018-05-27T05:23:38.743Z,1013.05
2018-05-27T05:24:38.732Z,1013.03
2018-05-27T05:25:38.733Z,1013.06
2018-05-27T05:26:38.729Z,1013.09
2018-05-27T05:27:38.737Z,1013.14
2018-05-27T05:28:38.722Z,1013.15
2018-05-27T05:29:38.717Z,1013.14
2018-05-27T05:30:38.715Z,1013.14
2018-05-27T05:31:38.720Z,1013.17
2018-05-27T05:32:38.713Z,1013.22
2018-05-27T05:33:38.715Z,1013.17
2018-05-27T05:34:38.708Z,1013.14
2018-05-27T05:35:38.703Z,1013.18
2018-05-27T05:36:38.701Z,1013.18
2018-05-27T05:37:38.695Z,1013.21
2018-05-27T05:38:38.693Z,1013.23
2018-05-27T05:39:38.699Z,1013.21
2018-05-27T05:40:38.695Z,1013.20
2018-05-27T05:41:38.688Z,1013.21
2018-05-27T05:42:38.687Z,1013.22
2018-05-27T05:43:38.727Z,1013.23
2018-05-27T05:44:38.680Z,1013.24
2018-05-27T05:45:38.693Z,1013.24
2018-05-27T05:46:38.681Z,1013.26
2018-05-27T05:47:38.720Z,1013.25
2018-05-27T05:48:38.678Z,1013.29
2018-05-27T05:49:38.678Z,1013.24
2018-05-27T05:50:38.672Z,1013.26
2018-05-27T05:51:38.673Z,1013.25
2018-05-27T05:52:38.671Z,1013.28
2018-05-27T05:53:38.668Z,1013.27
2018-05-27T05:54:38.671Z,1013.25
2018-05-27T05:55:38.669Z,1013.26
2018-05-27T05:56:38.669Z,1013.25
2018-05-27T05:57:38.673Z,1013.27
2018-05-27T05:58:38.662Z,1013.30
2018-05-27T05:59:38.665Z,1013.32
2018-05-27T06:00:38.667Z,1013.33
2018-05-27T06:01:38.677Z,1013.29
2018-05-27T06:02:38.666Z,1013.34
2018-05-27T06:03:38.665Z,1013.32
2018-05-27T06:04:38.671Z,1013.29
2018-05-27T06:05:38.669Z,1013.37
2018-05-27T06:06:38.661Z,1013.35
2018-05-27T06:07:38.663Z,1013.36
2018-05-27T06:08:38.667Z,1013.36
2018-05-27T06:09:38.673Z,1013.39
2018-05-27T06:10:38.660Z,1013.39
2018-05-27T06:11:38.663Z,1013.41
2018-05-27T06:12:38.674Z,1013.40
2018-05-27T06:13:38.746Z,1013.44
2018-05-27T06:14:38.659Z,1013.41
2018-05-27T06:15:38.664Z,1013.46
2018-05-27T06:16:38.665Z,1013.46
2018-05-27T06:17:38.665Z,1013.47
2018-05-27T06:18:38.662Z,1013.43
2018-05-27T06:19:38.691Z,1013.41
2018-05-27T06:20:38.662Z,1013.40
2018-05-27T06:21:38.663Z,1013.42
2018-05-27T06:22:38.665Z,1013.41
2018-05-27T06:23:38.667Z,1013.47
2018-05-27T06:24:38.668Z,1013.45
2018-05-27T06:25:38.688Z,1013.42
2018-05-27T06:26:38.675Z,1013.41
2018-05-27T06:27:38.670Z,1013.39
2018-05-27T06:28:38.667Z,1013.43
2018-05-27T06:29:38.670Z,1013.40
2018-05-27T06:30:38.672Z,1013.41
2018-05-27T06:31:38.679Z,1013.40
2018-05-27T06:32:38.672Z,1013.40
2018-05-27T06:33:38.674Z,1013.37
2018-05-27T06:34:38.672Z,1013.42
2018-05-27T06:35:38.677Z,1013.41
2018-05-27T06:36:38.679Z,1013.43
2018-05-27T06:37:38.680Z,1013.43
2018-05-27T06:38:38.685Z,1013.47
2018-05-27T06:39:38.683Z,1013.46
2018-05-27T06:40:38.683Z,1013.44
2018-05-27T06:41:38.683Z,1013.44
2018-05-27T06:42:38.686Z,1013.46
2018-05-27T06:43:38.691Z,1013.50
2018-05-27T06:44:38.691Z,1013.48
2018-05-27T06:45:38.691Z,1013.48
2018-05-27T06:46:38.698Z,1013.45
2018-05-27T06:47:38.695Z,1013.49
2018-05-27T06:48:38.698Z,1013.41
2018-05-27T06:49:38.703Z,1013.45
2018-05-27T06:50:38.704Z,1013.45
2018-05-27T06:51:38.713Z,1013.47
2018-05-27T06:52:38.712Z,1013.52
2018-05-27T06:53:38.713Z,1013.47
2018-05-27T06:54:38.717Z,1013.49
2018-05-27T06:55:38.720Z,1013.46
2018-05-27T06:56:38.719Z,1013.49
2018-05-27T06:57:38.723Z,1013.43
2018-05-27T06:58:38.733Z,1013.46
2018-05-27T06:59:38.735Z,1013.45
2018-05-27T07:00:38.738Z,1013.41
2018-05-27T07:01:38.735Z,1013.41
2018-05-27T07:02:38.743Z,1013.44
2018-05-27T07:03:38.743Z,1013.45
2018-05-27T07:04:38.779Z,1013.45
2018-05-27T07:05:38.758Z,1013.42
2018-05-27T07:06:38.756Z,1013.48
2018-05-27T07:07:38.760Z,1013.47
2018-05-27T07:08:38.761Z,1013.41
2018-05-27T07:09:38.770Z,1013.39
2018-05-27T07:10:38.777Z,1013.41
2018-05-27T07:11:38.820Z,1013.38
2018-05-27T07:12:38.784Z,1013.35
2018-05-27T07:13:38.788Z,1013.39
2018-05-27T07:14:38.790Z,1013.41
2018-05-27T07:15:38.791Z,1013.39
2018-05-27T07:16:38.815Z,1013.43
2018-05-27T07:17:38.802Z,1013.39
2018-05-27T07:18:38.808Z,1013.36
2018-05-27T07:19:38.818Z,1013.34
2018-05-27T07:20:38.819Z,1013.38
2018-05-27T07:21:38.826Z,1013.39
2018-05-27T07:22:38.824Z,1013.34
2018-05-27T07:23:38.832Z,1013.37
2018-05-27T07:24:38.837Z,1013.38
2018-05-27T07:25:38.842Z,1013.36
2018-05-27T07:26:38.905Z,1013.38
2018-05-27T07:27:38.855Z,1013.38
2018-05-27T07:28:38.919Z,1013.43
2018-05-27T07:29:38.869Z,1013.38
2018-05-27T07:30:38.876Z,1013.35
2018-05-27T07:31:38.872Z,1013.37
2018-05-27T07:32:38.878Z,1013.35
2018-05-27T07:33:38.889Z,1013.36
2018-05-27T07:34:38.962Z,1013.34
2018-05-27T07:35:38.894Z,1013.32
2018-05-27T07:36:38.901Z,1013.30
2018-05-27T07:37:38.906Z,1013.29
2018-05-27T07:38:38.915Z,1013.23
2018-05-27T07:39:38.920Z,1013.29
2018-05-27T07:40:38.932Z,1013.26
2018-05-27T07:41:38.934Z,1013.21
2018-05-27T07:42:38.942Z,1013.23
2018-05-27T07:43:38.946Z,1013.27
2018-05-27T07:44:38.952Z,1013.23
2018-05-27T07:45:38.959Z,1013.21
2018-05-27T07:46:38.990Z,1013.23
2018-05-27T07:47:38.973Z,1013.18
2018-05-27T07:48:38.975Z,1013.21
2018-05-27T07:49:38.991Z,1013.20
2018-05-27T07:50:38.998Z,1013.13
2018-05-27T07:51:38.994Z,1013.17
2018-05-27T07:52:39.013Z,1013.16
2018-05-27T07:53:39.011Z,1013.15
2018-05-27T07:54:39.018Z,1013.16
2018-05-27T07:55:39.027Z,1013.14
2018-05-27T07:56:39.029Z,1013.12
2018-05-27T07:57:39.042Z,1013.12
2018-05-27T07:58:39.042Z,1013.15
2018-05-27T07:59:39.048Z,1013.18
2018-05-27T08:00:39.056Z,1013.13
2018-05-27T08:01:39.063Z,1013.11
2018-05-27T08:02:39.072Z,1013.16
2018-05-27T08:03:39.106Z,1013.14
2018-05-27T08:04:39.103Z,1013.15
2018-05-27T08:05:39.088Z,1013.12
2018-05-27T08:06:39.098Z,1013.10
2018-05-27T08:07:39.112Z,1013.14
2018-05-27T08:08:39.104Z,1013.13
2018-05-27T08:09:39.113Z,1013.12
2018-05-27T08:10:39.117Z,1013.13
2018-05-27T08:11:39.122Z,1013.15
2018-05-27T08:12:39.123Z,1013.09
2018-05-27T08:13:39.133Z,1013.12
2018-05-27T08:14:39.141Z,1013.09
2018-05-27T08:15:39.145Z,1013.01
2018-05-27T08:16:39.146Z,1013.00
2018-05-27T08:17:39.155Z,1012.96
2018-05-27T08:18:39.159Z,1012.96
2018-05-27T08:19:39.220Z,1012.93
2018-05-27T08:20:39.174Z,1012.91
2018-05-27T08:21:39.175Z,1012.90
2018-05-27T08:22:39.191Z,1012.88
2018-05-27T08:23:39.177Z,1012.89
2018-05-27T08:24:39.187Z,1012.90
2018-05-27T08:25:39.208Z,1012.89
2018-05-27T08:26:39.192Z,1012.90
2018-05-27T08:27:39.199Z,1012.85
2018-05-27T08:28:39.204Z,1012.86
2018-05-27T08:29:40.036Z,1012.85
2018-05-27T08:30:39.213Z,1012.81
2018-05-27T08:31:39.212Z,1012.85
2018-05-27T08:32:39.280Z,1012.84
2018-05-27T08:33:39.235Z,1012.84
2018-05-27T08:34:39.222Z,1012.82
2018-05-27T08:35:39.231Z,1012.83
2018-05-27T08:36:39.237Z,1012.83
2018-05-27T08:37:39.242Z,1012.85
2018-05-27T08:38:39.258Z,1012.84
2018-05-27T08:39:39.250Z,1012.85
2018-05-27T08:40:39.262Z,1012.85
2018-05-27T08:41:39.261Z,1012.93
2018-05-27T08:42:39.264Z,1012.89
2018-05-27T08:43:39.282Z,1012.88
2018-05-27T08:44:39.275Z,1012.86
2018-05-27T08:45:39.277Z,1012.84
2018-05-27T08:46:39.290Z,1012.89
2018-05-27T08:47:39.292Z,1012.85
2018-05-27T08:48:39.295Z,1012.83
2018-05-27T08:49:39.303Z,1012.80
2018-05-27T08:50:39.308Z,1012.83
2018-05-27T08:51:39.314Z,1012.83
2018-05-27T08:52:39.316Z,1012.85
2018-05-27T08:53:39.324Z,1012.82
2018-05-27T08:54:39.329Z,1012.81
2018-05-27T08:55:39.333Z,1012.76
2018-05-27T08:56:39.344Z,1012.77
2018-05-27T08:57:39.348Z,1012.80
2018-05-27T08:58:39.410Z,1012.80
2018-05-27T08:59:39.357Z,1012.81
2018-05-27T09:00:39.377Z,1012.83
2018-05-27T09:01:39.375Z,1012.84
2018-05-27T09:02:39.389Z,1012.85
2018-05-27T09:03:39.388Z,1012.90
2018-05-27T09:04:39.395Z,1012.88
2018-05-27T09:05:39.399Z,1012.88
2018-05-27T09:06:39.405Z,1012.86
2018-05-27T09:07:39.416Z,1012.84
2018-05-27T09:08:39.425Z,1012.84
2018-05-27T09:09:39.436Z,1012.86
2018-05-27T09:10:39.439Z,1012.83
2018-05-27T09:11:39.443Z,1012.82
2018-05-27T09:12:39.446Z,1012.81
2018-05-27T09:13:39.455Z,1012.86
2018-05-27T09:14:39.462Z,1012.83
2018-05-27T09:15:39.476Z,1012.88
2018-05-27T09:16:39.482Z,1012.89
2018-05-27T09:17:39.488Z,1012.89
2018-05-27T09:18:39.497Z,1012.86
2018-05-27T09:19:39.505Z,1012.86
2018-05-27T09:20:39.511Z,1012.86
2018-05-27T09:21:39.518Z,1012.85
2018-05-27T09:22:39.529Z,1012.87
2018-05-27T09:23:39.542Z,1012.85
2018-05-27T09:24:39.548Z,1012.88
2018-05-27T09:25:39.549Z,1012.87
2018-05-27T09:26:39.558Z,1012.87
2018-05-27T09:27:39.570Z,1012.91
2018-05-27T09:28:39.576Z,1012.89
2018-05-27T09:29:39.588Z,1012.90
2018-05-27T09:30:39.598Z,1012.90
2018-05-27T09:31:39.608Z,1012.93
2018-05-27T09:32:39.612Z,1012.93
2018-05-27T09:33:39.621Z,1012.92
2018-05-27T09:34:39.638Z,1012.95
2018-05-27T09:35:39.633Z,1012.96
2018-05-27T09:36:39.653Z,1012.99
2018-05-27T09:37:39.659Z,1012.95
2018-05-27T09:38:39.668Z,1012.94
2018-05-27T09:39:39.670Z,1012.97
2018-05-27T09:40:39.677Z,1012.96
2018-05-27T09:41:39.691Z,1012.99
2018-05-27T09:42:39.700Z,1012.95
2018-05-27T09:43:39.708Z,1012.97
2018-05-27T09:44:39.718Z,1012.94
2018-05-27T09:45:39.726Z,1012.99
2018-05-27T09:46:39.732Z,1012.97
2018-05-27T09:47:39.757Z,1012.91
2018-05-27T09:48:40.682Z,1012.95
2018-05-27T09:49:41.839Z,1012.94
2018-05-27T09:50:39.900Z,1012.92
2018-05-27T09:51:39.778Z,1012.92
2018-05-27T09:52:39.786Z,1012.91
2018-05-27T09:53:44.616Z,1012.96
2018-05-27T09:54:39.833Z,1012.89
2018-05-27T09:55:39.847Z,1012.87
2018-05-27T09:56:39.828Z,1012.93
2018-05-27T09:57:39.859Z,1012.93
2018-05-27T09:58:39.840Z,1012.90
2018-05-27T09:59:39.867Z,1012.88
2018-05-27T10:00:39.883Z,1012.84
2018-05-27T10:01:39.869Z,1012.84
2018-05-27T10:02:39.907Z,1012.84
2018-05-27T10:03:39.890Z,1012.82
2018-05-27T10:04:39.893Z,1012.82
2018-05-27T10:05:39.915Z,1012.82
2018-05-27T10:06:39.913Z,1012.79
2018-05-27T10:07:39.924Z,1012.82
2018-05-27T10:08:39.931Z,1012.78
2018-05-27T10:09:39.945Z,1012.80
2018-05-27T10:10:39.949Z,1012.77
2018-05-27T10:11:40.014Z,1012.79
2018-05-27T10:12:39.972Z,1012.76
2018-05-27T10:13:39.986Z,1012.75
2018-05-27T10:14:39.989Z,1012.75
2018-05-27T10:15:40.005Z,1012.73
2018-05-27T10:16:40.010Z,1012.73
2018-05-27T10:17:40.024Z,1012.75
2018-05-27T10:18:40.035Z,1012.73
2018-05-27T10:19:40.034Z,1012.75
2018-05-27T10:20:40.070Z,1012.76
2018-05-27T10:21:40.056Z,1012.73
2018-05-27T10:22:40.066Z,1012.72
2018-05-27T10:23:40.080Z,1012.73
2018-05-27T10:24:40.092Z,1012.68
2018-05-27T10:25:40.096Z,1012.67
2018-05-27T10:26:40.103Z,1012.70
2018-05-27T10:27:40.163Z,1012.69
2018-05-27T10:28:40.142Z,1012.69
2018-05-27T10:29:40.141Z,1012.63
2018-05-27T10:30:40.155Z,1012.69
2018-05-27T10:31:40.159Z,1012.72
2018-05-27T10:32:40.168Z,1012.68
2018-05-27T10:33:40.175Z,1012.67
2018-05-27T10:34:40.186Z,1012.62
2018-05-27T10:35:40.198Z,1012.58
2018-05-27T10:36:40.206Z,1012.58
2018-05-27T10:37:40.205Z,1012.55
2018-05-27T10:38:40.217Z,1012.57
2018-05-27T10:39:50.271Z,1012.56
2018-05-27T10:41:33.981Z,1012.55
2018-05-27T10:42:33.973Z,1012.54
2018-05-27T10:44:27.812Z,1012.48
2018-05-27T10:45:27.765Z,1012.49
2018-05-27T10:47:21.770Z,1012.53
2018-05-27T10:48:21.420Z,1012.51
2018-05-27T10:49:21.433Z,1012.50
2018-05-27T10:50:21.445Z,1012.51
2018-05-27T10:51:21.458Z,1012.43
2018-05-27T10:52:21.472Z,1012.50
2018-05-27T10:53:21.482Z,1012.48
2018-05-27T10:54:21.478Z,1012.48
2018-05-27T10:55:21.509Z,1012.43
2018-05-27T10:56:21.487Z,1012.41
2018-05-27T10:57:21.503Z,1012.42
2018-05-27T10:58:21.509Z,1012.41
2018-05-27T10:59:21.512Z,1012.40
2018-05-27T11:00:21.523Z,1012.35
2018-05-27T11:01:21.533Z,1012.28
2018-05-27T11:02:21.538Z,1012.30
2018-05-27T11:03:21.551Z,1012.27
2018-05-27T11:04:21.554Z,1012.29
2018-05-27T11:05:21.573Z,1012.26
2018-05-27T11:06:21.572Z,1012.22
2018-05-27T11:07:21.597Z,1012.18
2018-05-27T11:08:22.249Z,1012.15
2018-05-27T11:09:21.611Z,1012.18
2018-05-27T11:10:21.625Z,1012.11
2018-05-27T11:11:21.621Z,1012.15
2018-05-27T11:12:21.634Z,1012.10
2018-05-27T11:13:21.638Z,1012.08
2018-05-27T11:14:21.651Z,1012.10
2018-05-27T11:15:21.659Z,1012.09
2018-05-27T11:16:21.665Z,1012.08
2018-05-27T11:17:22.245Z,1012.10
2018-05-27T11:18:22.250Z,1012.06
2018-05-27T11:19:21.712Z,1012.03
2018-05-27T11:20:21.700Z,1012.06
2018-05-27T11:21:21.716Z,1012.01
2018-05-27T11:22:21.727Z,1012.05
2018-05-27T11:23:21.726Z,1012.00
2018-05-27T11:24:21.734Z,1012.01
2018-05-27T11:25:21.747Z,1011.96
2018-05-27T11:26:21.751Z,1012.00
2018-05-27T11:27:21.765Z,1011.98
2018-05-27T11:28:21.776Z,1011.98
2018-05-27T11:29:21.787Z,1011.96
2018-05-27T11:30:21.789Z,1011.98
2018-05-27T11:31:21.815Z,1011.94
2018-05-27T11:32:21.822Z,1011.96
2018-05-27T11:33:21.818Z,1011.98
2018-05-27T11:34:21.828Z,1012.01
2018-05-27T11:35:21.838Z,1011.96
2018-05-27T11:36:21.848Z,1011.93
2018-05-27T11:37:21.857Z,1011.90
2018-05-27T11:38:21.869Z,1011.93
2018-05-27T11:39:21.889Z,1011.90
2018-05-27T11:40:21.881Z,1011.94
2018-05-27T11:41:21.890Z,1011.92
2018-05-27T11:42:21.895Z,1011.84
2018-05-27T11:43:21.900Z,1011.86
2018-05-27T11:44:21.908Z,1011.90
2018-05-27T11:45:21.920Z,1011.79
2018-05-27T11:46:21.931Z,1011.83
2018-05-27T11:47:21.931Z,1011.89
2018-05-27T11:48:21.945Z,1011.91
2018-05-27T11:49:21.955Z,1011.89
2018-05-27T11:50:21.958Z,1011.91
2018-05-27T11:51:21.965Z,1011.89
2018-05-27T11:52:21.972Z,1011.85
2018-05-27T11:53:21.983Z,1011.91
2018-05-27T11:54:21.988Z,1011.92
2018-05-27T11:55:21.996Z,1011.86
2018-05-27T11:56:22.004Z,1011.85
2018-05-27T11:57:22.010Z,1011.86
2018-05-27T11:58:22.015Z,1011.81
2018-05-27T11:59:22.027Z,1011.87
2018-05-27T12:00:22.034Z,1011.83
2018-05-27T12:01:22.041Z,1011.78
2018-05-27T12:02:22.061Z,1011.82
2018-05-27T12:03:22.052Z,1011.81
2018-05-27T12:04:22.064Z,1011.81
2018-05-27T12:05:22.065Z,1011.83
2018-05-27T12:06:22.072Z,1011.78
2018-05-27T12:07:22.080Z,1011.79
2018-05-27T12:08:22.086Z,1011.79